Time;durP1;ratioP1;P1;durP2;ratioP2;P2;SDS_P1;SDS_P2;PMS_P1;PMS_P2;Temp;Humidity;BMP_temperature;BMP_pressure;BME280_temperature;BME280_humidity;BME280_pressure;Samples;Min_cycle;Max_cycle;Signal;HPM_P1;HPM_P2
2022/04/09 00:00:50;;;;;;;5.93;0.80;;;5.30;99.90;;;;;;5028416;28;20257;-53
2022/04/09 00:03:15;;;;;;;0.70;0.70;;;5.10;99.90;;;;;;5026136;28;20227;-55
2022/04/09 00:05:41;;;;;;;0.70;0.70;;;5.00;99.90;;;;;;5026575;28;20202;-53
2022/04/09 00:08:07;;;;;;;1.43;1.10;;;5.00;99.90;;;;;;5011188;28;20200;-54
2022/04/09 00:10:33;;;;;;;0.60;0.60;;;5.00;99.90;;;;;;5027240;28;20172;-53
2022/04/09 00:12:58;;;;;;;0.90;0.80;;;4.90;99.90;;;;;;5024899;28;20238;-54
2022/04/09 00:15:24;;;;;;;0.73;0.73;;;4.90;99.90;;;;;;5024934;28;20179;-55
2022/04/09 00:17:49;;;;;;;0.80;0.80;;;4.90;99.90;;;;;;5027232;28;20195;-53
2022/04/09 00:20:17;;;;;;;0.70;0.70;;;4.80;99.90;;;;;;5028599;28;20176;-54
2022/04/09 00:22:44;;;;;;;0.70;0.70;;;4.80;99.90;;;;;;5027178;28;20182;-52
2022/04/09 00:25:12;;;;;;;0.70;0.70;;;4.80;99.90;;;;;;5029616;28;20506;-54
2022/04/09 00:27:39;;;;;;;0.70;0.70;;;4.80;99.90;;;;;;5026228;28;20446;-55
2022/04/09 00:30:07;;;;;;;0.70;0.70;;;4.70;99.90;;;;;;5024256;28;20958;-54
2022/04/09 00:32:33;;;;;;;0.60;0.60;;;4.70;99.90;;;;;;5027757;28;20887;-54
2022/04/09 00:34:59;;;;;;;0.80;0.80;;;4.60;99.90;;;;;;5021921;28;20438;-52
2022/04/09 00:37:24;;;;;;;0.70;0.70;;;4.50;99.90;;;;;;5026456;28;20198;-51
2022/04/09 00:39:50;;;;;;;1.93;0.80;;;4.40;99.90;;;;;;5027106;28;20322;-51
2022/04/09 00:42:17;;;;;;;0.80;0.80;;;4.20;99.90;;;;;;5027012;28;20179;-53
2022/04/09 00:44:42;;;;;;;0.80;0.80;;;4.10;99.90;;;;;;5024983;28;20719;-53
2022/04/09 00:47:09;;;;;;;0.80;0.80;;;4.10;99.90;;;;;;5028076;28;20434;-54
2022/04/09 00:49:39;;;;;;;0.70;0.70;;;4.10;99.90;;;;;;5024938;28;20176;-52
2022/04/09 00:52:07;;;;;;;0.83;0.83;;;4.10;99.90;;;;;;5008535;28;20775;-52
2022/04/09 00:54:34;;;;;;;0.80;0.80;;;4.00;99.90;;;;;;5020568;28;20895;-55
2022/04/09 00:57:05;;;;;;;0.80;0.80;;;4.00;99.90;;;;;;5025479;28;20509;-53
2022/04/09 00:59:31;;;;;;;0.70;0.70;;;4.00;99.90;;;;;;5027759;28;20410;-54
2022/04/09 01:01:57;;;;;;;0.73;0.73;;;3.90;99.90;;;;;;5019975;28;20804;-49
2022/04/09 01:04:24;;;;;;;0.70;0.70;;;3.80;99.90;;;;;;5025691;28;20829;-53
2022/04/09 01:06:51;;;;;;;0.90;0.90;;;3.80;99.90;;;;;;5022698;28;20418;-53
2022/04/09 01:09:16;;;;;;;0.70;0.70;;;3.70;99.90;;;;;;5031065;28;20413;-53
2022/04/09 01:11:42;;;;;;;1.00;0.77;;;3.70;99.90;;;;;;5026605;28;20434;-52
2022/04/09 01:14:11;;;;;;;0.70;0.70;;;3.60;99.90;;;;;;5029619;28;20231;-52
2022/04/09 01:16:36;;;;;;;0.70;0.70;;;3.50;99.90;;;;;;5042870;28;20225;-56
2022/04/09 01:19:02;;;;;;;0.87;0.87;;;3.40;99.90;;;;;;5030151;28;20514;-53
2022/04/09 01:21:28;;;;;;;0.80;0.80;;;3.40;99.90;;;;;;5029399;28;20179;-52
2022/04/09 01:23:55;;;;;;;0.70;0.70;;;3.30;99.90;;;;;;5029753;28;20445;-52
2022/04/09 01:26:21;;;;;;;0.70;0.70;;;3.20;99.90;;;;;;5029878;28;20419;-53
2022/04/09 01:28:47;;;;;;;0.80;0.80;;;3.10;99.90;;;;;;5025784;28;20446;-53
2022/04/09 01:31:13;;;;;;;0.70;0.70;;;3.10;99.90;;;;;;5029520;28;20434;-53
2022/04/09 01:33:39;;;;;;;0.90;0.90;;;3.00;99.90;;;;;;5033632;28;20426;-54
2022/04/09 01:36:05;;;;;;;0.80;0.80;;;3.00;99.90;;;;;;5030235;28;20414;-53
2022/04/09 01:38:34;;;;;;;1.10;0.83;;;2.90;99.90;;;;;;5029072;28;21187;-52
2022/04/09 01:40:59;;;;;;;0.80;0.80;;;2.90;99.90;;;;;;5030359;28;21024;-54
2022/04/09 01:43:25;;;;;;;0.90;0.90;;;2.90;99.90;;;;;;5029232;28;20460;-53
2022/04/09 01:45:51;;;;;;;1.00;1.00;;;2.90;99.90;;;;;;5027812;28;20713;-53
2022/04/09 01:48:16;;;;;;;0.80;0.80;;;2.80;99.90;;;;;;5028069;28;20226;-53
2022/04/09 01:50:42;;;;;;;1.00;1.00;;;2.90;99.90;;;;;;5044526;28;20200;-54
2022/04/09 01:53:08;;;;;;;1.00;1.00;;;2.90;99.90;;;;;;5035001;28;20259;-53
2022/04/09 01:55:33;;;;;;;0.87;0.87;;;2.90;99.90;;;;;;5027313;28;20811;-55
2022/04/09 01:57:59;;;;;;;0.90;0.90;;;2.90;99.90;;;;;;5029696;28;20195;-53
2022/04/09 02:00:25;;;;;;;1.10;1.10;;;2.90;99.90;;;;;;5030917;28;20176;-53
2022/04/09 02:02:51;;;;;;;1.00;1.00;;;2.90;99.90;;;;;;5030389;28;20229;-54
2022/04/09 02:05:18;;;;;;;1.07;1.07;;;2.80;99.90;;;;;;5024752;28;20606;-54
2022/04/09 02:07:45;;;;;;;1.00;1.00;;;2.80;99.90;;;;;;5033638;28;20553;-54
2022/04/09 02:10:11;;;;;;;1.00;0.90;;;2.80;99.90;;;;;;5029186;28;20443;-55
2022/04/09 02:12:38;;;;;;;0.90;0.90;;;2.80;99.90;;;;;;5025812;28;20458;-52
2022/04/09 02:15:07;;;;;;;1.13;1.13;;;2.80;99.90;;;;;;5023666;28;20433;-55
2022/04/09 02:17:35;;;;;;;1.10;1.10;;;2.70;99.90;;;;;;5028978;28;20591;-55
2022/04/09 02:20:01;;;;;;;1.00;1.00;;;2.70;99.90;;;;;;5024580;28;20430;-56
2022/04/09 02:22:26;;;;;;;1.33;1.10;;;2.70;99.90;;;;;;5029965;28;20418;-54
2022/04/09 02:24:53;;;;;;;0.90;0.90;;;2.60;99.90;;;;;;5027998;28;20462;-55
2022/04/09 02:27:19;;;;;;;0.93;0.93;;;2.60;99.90;;;;;;5026079;28;20441;-54
2022/04/09 02:29:46;;;;;;;1.03;1.03;;;2.60;99.90;;;;;;5023181;28;20949;-53
2022/04/09 02:32:12;;;;;;;1.30;1.20;;;2.60;99.90;;;;;;5027718;28;20506;-54
2022/04/09 02:34:38;;;;;;;2.20;1.43;;;2.50;99.90;;;;;;5025199;28;20437;-56
2022/04/09 02:37:05;;;;;;;1.20;1.20;;;2.50;99.90;;;;;;5029680;28;20407;-55
2022/04/09 02:39:31;;;;;;;1.13;1.13;;;2.50;99.90;;;;;;5026011;28;20191;-54
2022/04/09 02:41:56;;;;;;;0.90;0.90;;;2.50;99.90;;;;;;5029969;28;20471;-54
2022/04/09 02:44:24;;;;;;;0.97;0.97;;;2.50;99.90;;;;;;5027759;28;20966;-56
2022/04/09 02:46:50;;;;;;;1.03;1.03;;;2.40;99.90;;;;;;5020809;28;20372;-54
2022/04/09 02:49:16;;;;;;;1.00;1.00;;;2.40;99.90;;;;;;5028929;28;20491;-53
2022/04/09 02:51:43;;;;;;;1.10;1.10;;;2.40;99.90;;;;;;5028498;28;20854;-54
2022/04/09 02:54:15;;;;;;;2.03;1.00;;;2.40;99.90;;;;;;5023528;28;20471;-55
2022/04/09 02:56:42;;;;;;;1.10;1.10;;;2.40;99.90;;;;;;5026605;28;20540;-54
2022/04/09 02:59:09;;;;;;;1.20;1.20;;;2.40;99.90;;;;;;5030812;28;20456;-54
2022/04/09 03:01:34;;;;;;;1.17;1.17;;;2.30;99.90;;;;;;5026755;28;20525;-53
2022/04/09 03:04:00;;;;;;;1.07;1.03;;;2.30;99.90;;;;;;5028120;28;20546;-54
2022/04/09 03:06:26;;;;;;;1.50;1.40;;;2.30;99.90;;;;;;5030185;28;20672;-50
2022/04/09 03:08:51;;;;;;;1.70;1.60;;;2.30;99.90;;;;;;5028315;28;20211;-51
2022/04/09 03:11:17;;;;;;;1.53;1.43;;;2.20;99.90;;;;;;5023520;28;20179;-50
2022/04/09 03:13:42;;;;;;;1.80;1.70;;;2.20;99.90;;;;;;5027440;28;20186;-51
2022/04/09 03:16:08;;;;;;;1.40;1.30;;;2.20;99.90;;;;;;5027496;28;20579;-50
2022/04/09 03:18:34;;;;;;;1.27;1.23;;;2.20;99.90;;;;;;5029095;28;20297;-51
2022/04/09 03:21:00;;;;;;;1.70;1.60;;;2.20;99.90;;;;;;5028208;28;20182;-53
2022/04/09 03:23:25;;;;;;;1.47;1.37;;;2.20;99.90;;;;;;5026466;28;20197;-54
2022/04/09 03:25:51;;;;;;;1.50;1.40;;;2.20;99.90;;;;;;5025410;28;20582;-52
2022/04/09 03:28:16;;;;;;;1.97;1.77;;;2.20;99.90;;;;;;5026439;28;20195;-52
2022/04/09 03:30:44;;;;;;;1.60;1.50;;;2.20;99.90;;;;;;5027459;28;20173;-53
2022/04/09 03:33:10;;;;;;;2.00;1.90;;;2.20;99.90;;;;;;5028831;28;20240;-53
2022/04/09 03:35:35;;;;;;;2.40;2.20;;;2.20;99.90;;;;;;5026400;28;20436;-54
2022/04/09 03:38:02;;;;;;;1.80;1.70;;;2.20;99.90;;;;;;5027496;28;20499;-53
2022/04/09 03:40:27;;;;;;;2.50;2.30;;;2.20;99.90;;;;;;5027604;28;20224;-53
2022/04/09 03:42:53;;;;;;;2.07;1.97;;;2.10;99.90;;;;;;5028777;28;20423;-53
2022/04/09 03:45:19;;;;;;;2.40;2.30;;;2.10;99.90;;;;;;5025079;28;20178;-53
2022/04/09 03:47:45;;;;;;;2.90;2.70;;;2.10;99.90;;;;;;5041240;22;20485;-57
2022/04/09 03:50:11;;;;;;;1.93;1.83;;;2.10;99.90;;;;;;5024300;28;20819;-58
2022/04/09 03:52:38;;;;;;;2.80;2.53;;;2.10;99.90;;;;;;5039286;28;20400;-58
2022/04/09 03:55:04;;;;;;;3.63;2.17;;;2.10;99.90;;;;;;5020322;28;20175;-59
2022/04/09 03:57:30;;;;;;;2.57;2.37;;;2.10;99.90;;;;;;5028568;28;20426;-56
2022/04/09 03:59:57;;;;;;;2.70;2.50;;;2.10;99.90;;;;;;5023203;28;20841;-57
2022/04/09 04:02:23;;;;;;;2.63;2.43;;;2.10;99.90;;;;;;5049042;28;20416;-59
2022/04/09 04:04:49;;;;;;;2.87;2.63;;;2.10;99.90;;;;;;5011223;28;20456;-58
2022/04/09 04:07:20;;;;;;;2.90;2.70;;;2.10;99.90;;;;;;5011534;28;20446;-57
2022/04/09 04:09:46;;;;;;;3.10;2.80;;;2.10;99.90;;;;;;5010697;28;20188;-57
2022/04/09 04:12:11;;;;;;;3.33;3.00;;;2.20;99.90;;;;;;5011525;28;20419;-57
2022/04/09 04:14:37;;;;;;;2.83;2.60;;;2.20;99.90;;;;;;5012312;28;20551;-57
2022/04/09 04:17:03;;;;;;;3.00;2.77;;;2.20;99.90;;;;;;5024498;28;20182;-59
2022/04/09 04:19:29;;;;;;;3.53;3.23;;;2.20;99.90;;;;;;5007471;28;20206;-58
2022/04/09 04:21:54;;;;;;;2.50;2.30;;;2.20;99.90;;;;;;5024040;28;20260;-58
2022/04/09 04:24:20;;;;;;;2.73;2.53;;;2.20;99.90;;;;;;5017196;28;20198;-57
2022/04/09 04:26:46;;;;;;;3.23;2.80;;;2.20;99.90;;;;;;5028651;28;20171;-57
2022/04/09 04:29:11;;;;;;;2.87;2.67;;;2.20;99.90;;;;;;5017919;28;20191;-57
2022/04/09 04:31:37;;;;;;;4.63;2.20;;;2.20;99.90;;;;;;5009666;28;20203;-57
2022/04/09 04:34:02;;;;;;;1.90;1.80;;;2.30;99.90;;;;;;5027837;28;20220;-57
2022/04/09 04:36:28;;;;;;;2.13;2.00;;;2.30;99.90;;;;;;5029112;28;20176;-57
2022/04/09 04:38:54;;;;;;;2.93;2.20;;;2.20;99.90;;;;;;5024736;28;20765;-58
2022/04/09 04:41:19;;;;;;;2.73;2.47;;;2.20;99.90;;;;;;5029930;28;20183;-57
2022/04/09 04:43:49;;;;;;;2.40;2.20;;;2.20;99.90;;;;;;5028466;28;20214;-57
2022/04/09 04:46:14;;;;;;;2.60;2.40;;;2.20;99.90;;;;;;5027799;28;20168;-58
2022/04/09 04:48:40;;;;;;;4.00;3.00;;;2.20;99.90;;;;;;5027798;28;20465;-57
2022/04/09 04:51:06;;;;;;;7.10;3.20;;;2.20;99.90;;;;;;5015648;28;20196;-57
2022/04/09 04:53:31;;;;;;;3.20;2.47;;;2.20;99.90;;;;;;5032322;28;20672;-57
2022/04/09 04:55:57;;;;;;;3.07;2.40;;;2.20;99.90;;;;;;5027938;28;20176;-57
2022/04/09 04:58:22;;;;;;;5.07;3.30;;;2.10;99.90;;;;;;5026751;28;20291;-57
2022/04/09 05:00:49;;;;;;;4.27;3.07;;;2.10;99.90;;;;;;5027690;28;20183;-57
2022/04/09 05:03:15;;;;;;;3.23;2.93;;;2.20;99.90;;;;;;5023433;28;20285;-57
2022/04/09 05:05:40;;;;;;;3.77;3.20;;;2.20;99.90;;;;;;5045921;28;20510;-59
2022/04/09 05:08:06;;;;;;;7.63;3.50;;;2.20;99.90;;;;;;5009031;28;20186;-57
2022/04/09 05:10:32;;;;;;;6.23;3.47;;;2.30;99.90;;;;;;5022491;28;20180;-57
2022/04/09 05:12:59;;;;;;;4.33;3.60;;;2.30;99.90;;;;;;5027243;28;20190;-58
2022/04/09 05:15:25;;;;;;;6.27;4.33;;;2.30;99.90;;;;;;5033002;28;20171;-57
2022/04/09 05:17:50;;;;;;;5.30;4.30;;;2.20;99.90;;;;;;5023792;28;20454;-58
2022/04/09 05:20:16;;;;;;;7.10;4.80;;;2.20;99.90;;;;;;5011247;28;20176;-58
2022/04/09 05:22:49;;;;;;;5.00;4.50;;;2.20;99.90;;;;;;4999529;28;20265;-58
2022/04/09 05:25:19;;;;;;;7.60;4.13;;;2.20;99.90;;;;;;5018524;28;20557;-57
2022/04/09 05:27:46;;;;;;;8.57;4.67;;;2.10;99.90;;;;;;5011982;28;20464;-58
2022/04/09 05:30:11;;;;;;;8.00;4.73;;;2.10;99.90;;;;;;5019758;28;20445;-58
2022/04/09 05:32:39;;;;;;;4.70;4.00;;;2.10;99.90;;;;;;5014799;28;20439;-57
2022/04/09 05:35:06;;;;;;;6.23;4.20;;;2.10;99.90;;;;;;5007551;28;20174;-58
2022/04/09 05:37:31;;;;;;;4.60;3.80;;;2.10;99.90;;;;;;5022499;28;20519;-59
2022/04/09 05:39:57;;;;;;;4.80;3.67;;;2.20;99.90;;;;;;5015708;28;20542;-57
2022/04/09 05:42:25;;;;;;;3.93;3.50;;;2.20;99.90;;;;;;5016967;28;20187;-59
2022/04/09 05:44:55;;;;;;;4.30;3.73;;;2.20;99.90;;;;;;5013603;28;20485;-58
2022/04/09 05:47:20;;;;;;;5.57;4.17;;;2.20;99.90;;;;;;5007816;28;20431;-59
2022/04/09 05:49:46;;;;;;;6.40;3.90;;;2.20;99.90;;;;;;5027491;28;21009;-58
2022/04/09 05:52:13;;;;;;;4.90;4.13;;;2.20;99.90;;;;;;5013743;28;20176;-60
2022/04/09 05:54:39;;;;;;;6.00;4.43;;;2.20;99.90;;;;;;5013682;28;20442;-59
2022/04/09 05:57:06;;;;;;;9.07;5.20;;;2.20;99.90;;;;;;5013977;28;21005;-59
2022/04/09 05:59:32;;;;;;;5.50;4.50;;;2.30;99.90;;;;;;4994000;28;20567;-59
2022/04/09 06:01:57;;;;;;;5.93;4.13;;;2.30;99.90;;;;;;5013251;28;20463;-59
2022/04/09 06:04:23;;;;;;;6.30;4.87;;;2.30;99.90;;;;;;5014666;28;20979;-59
2022/04/09 06:06:49;;;;;;;9.10;4.00;;;2.30;99.90;;;;;;5018455;28;20567;-59
2022/04/09 06:09:15;;;;;;;5.70;4.00;;;2.30;99.90;;;;;;5009587;28;20459;-59
2022/04/09 06:11:44;;;;;;;4.50;3.30;;;2.30;99.90;;;;;;5021423;28;20211;-58
2022/04/09 06:14:10;;;;;;;5.57;4.23;;;2.30;99.90;;;;;;5017066;28;20501;-59
2022/04/09 06:16:38;;;;;;;8.13;4.30;;;2.40;99.90;;;;;;5012411;28;20443;-57
2022/04/09 06:19:05;;;;;;;7.80;5.93;;;2.40;99.90;;;;;;5018496;28;20563;-59
2022/04/09 06:21:32;;;;;;;6.33;3.83;;;2.30;99.90;;;;;;5015503;28;20443;-58
2022/04/09 06:23:58;;;;;;;4.20;3.60;;;2.30;99.90;;;;;;5015395;28;20489;-56
2022/04/09 06:26:24;;;;;;;5.40;4.90;;;2.40;99.90;;;;;;5016222;28;20500;-60
2022/04/09 06:28:50;;;;;;;5.40;4.03;;;2.50;99.90;;;;;;5025871;28;20461;-58
2022/04/09 06:31:15;;;;;;;7.73;4.70;;;2.50;99.90;;;;;;5023374;28;20199;-59
2022/04/09 06:33:41;;;;;;;6.40;4.63;;;2.50;99.90;;;;;;5015289;28;20256;-61
2022/04/09 06:36:07;;;;;;;6.10;4.60;;;2.50;99.90;;;;;;5023502;28;20637;-59
2022/04/09 06:38:33;;;;;;;6.30;4.77;;;2.50;99.90;;;;;;5017052;28;20291;-59
2022/04/09 06:40:59;;;;;;;5.77;4.17;;;2.50;99.90;;;;;;5019547;28;20442;-59
2022/04/09 06:43:26;;;;;;;6.17;4.63;;;2.60;99.90;;;;;;5023607;28;20450;-59
2022/04/09 06:45:52;;;;;;;8.00;5.90;;;2.60;99.90;;;;;;5011961;28;20180;-59
2022/04/09 06:48:18;;;;;;;6.40;5.23;;;2.60;99.90;;;;;;5018841;28;21049;-59
2022/04/09 06:50:43;;;;;;;6.73;5.37;;;2.50;99.90;;;;;;5028418;28;20433;-58
2022/04/09 06:53:09;;;;;;;6.30;5.10;;;2.50;99.90;;;;;;5017143;28;20188;-59
2022/04/09 06:55:35;;;;;;;6.47;5.40;;;2.50;99.90;;;;;;5010820;28;20183;-59
2022/04/09 06:58:02;;;;;;;7.37;5.10;;;2.50;99.90;;;;;;4997506;28;20287;-58
2022/04/09 07:00:29;;;;;;;6.70;5.57;;;2.50;99.90;;;;;;5013680;28;21186;-58
2022/04/09 07:02:54;;;;;;;7.20;5.27;;;2.50;99.90;;;;;;5014065;28;20964;-59
2022/04/09 07:05:21;;;;;;;6.80;5.73;;;2.50;99.90;;;;;;5011906;28;20463;-59
2022/04/09 07:07:48;;;;;;;9.17;6.00;;;2.60;99.90;;;;;;5015074;28;20525;-59
2022/04/09 07:10:15;;;;;;;9.13;5.80;;;2.50;99.90;;;;;;5016295;28;20434;-59
2022/04/09 07:12:41;;;;;;;8.00;6.50;;;2.60;99.90;;;;;;5013622;28;20496;-60
2022/04/09 07:15:07;;;;;;;10.63;6.10;;;2.60;99.90;;;;;;5017778;28;20435;-59
2022/04/09 07:17:33;;;;;;;8.07;6.07;;;2.60;99.90;;;;;;5020480;28;20525;-58
2022/04/09 07:20:00;;;;;;;9.07;5.17;;;2.60;99.90;;;;;;5018643;28;21322;-59
2022/04/09 07:22:25;;;;;;;11.93;6.10;;;2.60;99.90;;;;;;5020660;28;20172;-58
2022/04/09 07:24:51;;;;;;;7.23;5.90;;;2.50;99.90;;;;;;5019208;28;20990;-59
2022/04/09 07:27:17;;;;;;;8.47;6.90;;;2.50;99.90;;;;;;5011049;28;20181;-59
2022/04/09 07:29:42;;;;;;;8.57;6.67;;;2.50;99.90;;;;;;5022144;28;20228;-59
2022/04/09 07:32:08;;;;;;;8.83;6.70;;;2.60;99.90;;;;;;5016436;28;20171;-59
2022/04/09 07:34:34;;;;;;;12.37;6.43;;;2.70;99.90;;;;;;5008676;28;20201;-58
2022/04/09 07:37:00;;;;;;;11.60;6.83;;;2.80;99.90;;;;;;5039932;28;21006;-59
2022/04/09 07:39:25;;;;;;;8.67;6.20;;;2.80;99.90;;;;;;5017437;28;20529;-59
2022/04/09 07:41:51;;;;;;;14.13;6.27;;;2.90;99.90;;;;;;5009252;28;20266;-59
2022/04/09 07:44:17;;;;;;;10.17;6.63;;;2.90;99.90;;;;;;5028924;28;20280;-58
2022/04/09 07:46:42;;;;;;;9.50;6.10;;;3.00;99.90;;;;;;5015126;28;20238;-58
2022/04/09 07:49:08;;;;;;;7.73;6.17;;;3.00;99.90;;;;;;5015366;28;20204;-58
2022/04/09 07:51:34;;;;;;;15.97;6.07;;;3.10;99.90;;;;;;5019043;28;20654;-58
2022/04/09 07:53:59;;;;;;;10.73;5.70;;;3.20;99.90;;;;;;5022369;28;20240;-60
2022/04/09 07:56:25;;;;;;;7.17;5.53;;;3.20;99.90;;;;;;5011632;28;20713;-59
2022/04/09 07:58:51;;;;;;;6.90;5.80;;;3.20;99.90;;;;;;5018045;28;20204;-58
2022/04/09 08:01:16;;;;;;;11.37;5.77;;;3.30;99.90;;;;;;5015800;28;20251;-61
2022/04/09 08:03:42;;;;;;;6.67;5.03;;;3.40;99.90;;;;;;5017455;28;20188;-55
2022/04/09 08:06:08;;;;;;;8.07;5.47;;;3.40;99.90;;;;;;5020509;28;20171;-58
2022/04/09 08:08:33;;;;;;;8.43;5.63;;;3.40;99.90;;;;;;5020769;28;20732;-58
2022/04/09 08:11:00;;;;;;;8.77;5.33;;;3.50;99.90;;;;;;5011251;28;20343;-58
2022/04/09 08:13:26;;;;;;;9.43;5.30;;;3.50;99.90;;;;;;5017116;28;20247;-56
2022/04/09 08:15:51;;;;;;;7.63;4.70;;;3.60;99.90;;;;;;5017383;28;20434;-56
2022/04/09 08:18:17;;;;;;;6.53;5.10;;;3.60;99.90;;;;;;5017232;28;20192;-54
2022/04/09 08:20:43;;;;;;;8.63;5.10;;;3.70;99.90;;;;;;4997304;28;20181;-59
2022/04/09 08:23:09;;;;;;;10.20;4.73;;;3.70;99.90;;;;;;4999190;28;20459;-58
2022/04/09 08:25:35;;;;;;;9.00;5.40;;;3.70;99.90;;;;;;5014712;28;20585;-58
2022/04/09 08:28:01;;;;;;;7.13;4.70;;;3.70;99.90;;;;;;5013680;28;20247;-58
2022/04/09 08:30:27;;;;;;;6.50;4.00;;;3.70;99.90;;;;;;5012792;28;20187;-59
2022/04/09 08:32:54;;;;;;;7.47;5.20;;;3.70;99.90;;;;;;5018682;28;20427;-59
2022/04/09 08:35:20;;;;;;;5.93;4.60;;;3.80;99.90;;;;;;5010592;28;20174;-58
2022/04/09 08:37:56;;;;;;;4.27;3.87;;;3.90;99.90;;;;;;5024276;28;20442;-59
2022/04/09 08:40:22;;;;;;;6.20;4.90;;;4.20;99.90;;;;;;5023429;28;20837;-59
2022/04/09 08:42:49;;;;;;;7.40;4.17;;;4.30;99.90;;;;;;5019431;28;20430;-59
2022/04/09 08:45:17;;;;;;;9.20;5.70;;;4.30;99.90;;;;;;5012184;28;20459;-60
2022/04/09 08:47:44;;;;;;;5.40;4.43;;;4.20;99.90;;;;;;5015795;28;20471;-58
2022/04/09 08:50:11;;;;;;;4.80;4.30;;;4.20;99.90;;;;;;5014493;28;20501;-59
2022/04/09 08:52:46;;;;;;;10.50;4.63;;;4.20;99.90;;;;;;5034185;28;20510;-60
2022/04/09 08:55:12;;;;;;;4.87;3.87;;;4.30;99.90;;;;;;5011522;28;20446;-59
2022/04/09 08:57:38;;;;;;;4.33;3.80;;;4.30;99.90;;;;;;5013242;28;20443;-60
2022/04/09 09:00:06;;;;;;;7.27;4.53;;;4.30;99.90;;;;;;5014340;28;20469;-59
2022/04/09 09:02:35;;;;;;;7.27;5.37;;;4.30;99.90;;;;;;5021021;28;20435;-59
2022/04/09 09:05:01;;;;;;;5.40;4.30;;;4.30;99.90;;;;;;5010340;28;20513;-59
2022/04/09 09:07:28;;;;;;;8.37;4.90;;;4.40;99.90;;;;;;5011110;28;21045;-59
2022/04/09 09:10:12;;;;;;;10.27;6.00;;;4.50;99.90;;;;;;5014168;28;20430;-59
2022/04/09 09:12:38;;;;;;;9.50;4.40;;;4.50;99.90;;;;;;4995271;28;20425;-58
2022/04/09 09:15:05;;;;;;;5.80;4.83;;;4.60;99.90;;;;;;5018797;28;20462;-59
2022/04/09 09:17:31;;;;;;;4.83;4.33;;;4.60;99.90;;;;;;4995684;28;20443;-58
2022/04/09 09:19:57;;;;;;;7.50;5.07;;;4.70;99.90;;;;;;5015491;28;20551;-59
2022/04/09 09:22:37;;;;;;;6.37;4.70;;;4.70;99.90;;;;;;5015982;28;20463;-60
2022/04/09 09:25:03;;;;;;;5.33;4.60;;;4.70;99.90;;;;;;5013487;28;20457;-60
2022/04/09 09:27:29;;;;;;;10.87;5.03;;;4.60;99.90;;;;;;5022061;28;22523;-59
2022/04/09 09:29:55;;;;;;;6.73;4.60;;;4.60;99.90;;;;;;5016174;28;20438;-60
2022/04/09 09:32:26;;;;;;;8.87;4.60;;;4.50;99.90;;;;;;5008967;28;20182;-60
2022/04/09 09:35:01;;;;;;;9.37;4.53;;;4.50;99.90;;;;;;5008894;28;20768;-60
2022/04/09 09:37:29;;;;;;;6.63;4.00;;;4.60;99.90;;;;;;5009726;28;20524;-59
2022/04/09 09:39:55;;;;;;;7.13;4.77;;;4.60;99.90;;;;;;5009695;28;20577;-60
2022/04/09 09:42:22;;;;;;;8.80;4.80;;;4.60;99.70;;;;;;5016424;28;20513;-60
2022/04/09 09:44:49;;;;;;;9.30;5.07;;;4.70;99.70;;;;;;5010546;28;20471;-59
2022/04/09 09:47:15;;;;;;;8.20;4.50;;;4.80;99.90;;;;;;5012705;28;20431;-58
2022/04/09 09:49:47;;;;;;;14.20;4.80;;;5.00;99.90;;;;;;4990408;28;20493;-60
2022/04/09 09:52:14;;;;;;;5.10;4.60;;;5.00;99.90;;;;;;5010273;28;20423;-59
2022/04/09 09:55:14;;;;;;;4.60;4.20;;;5.00;99.90;;;;;;5011623;28;20442;-61
2022/04/09 09:57:41;;;;;;;7.13;3.73;;;4.90;99.90;;;;;;4970702;28;21063;-55
2022/04/09 10:00:16;;;;;;;5.47;3.60;;;4.80;98.20;;;;;;5010164;28;20967;-60
2022/04/09 10:02:44;;;;;;;5.10;4.00;;;4.70;96.70;;;;;;5006434;28;20440;-57
2022/04/09 10:05:10;;;;;;;7.93;4.67;;;4.70;96.10;;;;;;5013962;28;20918;-56
2022/04/09 10:07:36;;;;;;;5.50;3.80;;;4.70;96.80;;;;;;5017016;28;20430;-60
2022/04/09 10:10:03;;;;;;;5.70;4.53;;;4.60;96.60;;;;;;4992920;28;20175;-60
2022/04/09 10:12:29;;;;;;;4.40;3.90;;;4.80;98.60;;;;;;5011690;28;20446;-58
2022/04/09 10:14:57;;;;;;;13.73;4.10;;;4.90;95.60;;;;;;5014781;28;20435;-59
2022/04/09 10:17:24;;;;;;;6.10;4.10;;;5.20;95.80;;;;;;5007590;28;20180;-59
2022/04/09 10:19:55;;;;;;;5.20;4.63;;;5.30;94.40;;;;;;5008608;28;20464;-59
2022/04/09 10:22:48;;;;;;;5.50;4.43;;;5.30;93.50;;;;;;5034234;28;20415;-59
2022/04/09 10:25:16;;;;;;;5.40;4.00;;;5.20;90.80;;;;;;5012814;28;20462;-59
2022/04/09 10:27:44;;;;;;;7.53;4.30;;;5.30;95.90;;;;;;5030140;28;20439;-57
2022/04/09 10:30:16;;;;;;;10.93;3.77;;;5.50;92.50;;;;;;5020190;28;20439;-59
2022/04/09 10:32:42;;;;;;;7.33;4.10;;;5.50;77.40;;;;;;5022214;28;20458;-59
2022/04/09 10:35:38;;;;;;;6.50;3.50;;;5.30;85.00;;;;;;5027258;28;20971;-59
2022/04/09 10:38:07;;;;;;;6.63;3.63;;;5.30;90.20;;;;;;5019081;28;20201;-58
2022/04/09 10:40:49;;;;;;;4.80;3.80;;;5.30;91.70;;;;;;4994038;28;20481;-59
2022/04/09 10:43:23;;;;;;;6.07;3.37;;;5.60;92.50;;;;;;5025712;28;20462;-58
2022/04/09 10:46:05;;;;;;;6.43;4.17;;;5.90;93.00;;;;;;5029504;28;20401;-60
2022/04/09 10:48:39;;;;;;;3.80;3.30;;;6.30;84.60;;;;;;4977201;28;1092505;-59
2022/04/09 10:51:08;;;;;;;7.43;4.53;;;6.60;80.80;;;;;;5020962;28;20440;-59
2022/04/09 10:53:53;;;;;;;5.33;3.77;;;6.80;66.00;;;;;;5028055;28;20426;-59
2022/04/09 10:56:28;;;;;;;4.77;3.23;;;6.90;69.20;;;;;;5015926;28;20450;-59
2022/04/09 10:59:06;;;;;;;4.57;3.90;;;6.80;63.10;;;;;;5014609;28;20458;-59
2022/04/09 11:01:48;;;;;;;4.00;3.60;;;6.50;63.90;;;;;;5023377;28;20486;-58
2022/04/09 11:07:23;;;;;;;9.27;3.33;;;6.10;66.70;;;;;;5030870;28;20406;-60
2022/04/09 11:09:59;;;;;;;12.20;3.70;;;6.10;71.50;;;;;;5022924;28;20523;-59
2022/04/09 11:12:28;;;;;;;6.37;3.53;;;5.90;68.80;;;;;;5027785;28;20441;-59
2022/04/09 11:14:58;;;;;;;5.13;3.70;;;5.80;71.00;;;;;;5016645;28;20438;-59
2022/04/09 11:17:25;;;;;;;8.13;3.93;;;5.80;81.50;;;;;;5028975;28;20924;-59
2022/04/09 11:19:51;;;;;;;9.00;4.50;;;5.80;88.20;;;;;;5021111;28;20528;-58
2022/04/09 11:22:17;;;;;;;7.67;4.23;;;5.90;89.80;;;;;;5018720;28;20443;-59
2022/04/09 11:24:43;;;;;;;8.27;4.13;;;5.90;81.50;;;;;;5023773;28;20501;-59
2022/04/09 11:27:12;;;;;;;5.00;3.73;;;6.00;86.90;;;;;;5023999;28;20458;-59
2022/04/09 11:29:40;;;;;;;9.43;3.73;;;6.10;91.20;;;;;;5017908;28;20451;-59
2022/04/09 11:32:06;;;;;;;5.60;3.40;;;6.30;80.60;;;;;;5030456;28;20472;-59
2022/04/09 11:34:47;;;;;;;6.33;3.57;;;6.40;82.70;;;;;;5021735;28;20427;-58
2022/04/09 11:37:13;;;;;;;4.50;3.30;;;6.40;83.60;;;;;;5011372;28;20411;-58
2022/04/09 11:39:44;;;;;;;4.53;3.50;;;6.30;82.20;;;;;;5018806;28;20466;-59
2022/04/09 11:42:11;;;;;;;6.90;3.50;;;6.30;75.00;;;;;;5027943;28;20442;-58
2022/04/09 11:44:40;;;;;;;7.10;4.27;;;6.30;76.40;;;;;;5023764;28;20578;-59
2022/04/09 11:47:14;;;;;;;6.50;3.40;;;6.30;71.70;;;;;;4993433;28;20904;-60
2022/04/09 11:49:41;;;;;;;4.50;3.90;;;6.30;69.50;;;;;;5011271;28;20475;-58
2022/04/09 11:52:07;;;;;;;4.50;3.43;;;6.40;77.20;;;;;;5022150;28;20438;-59
2022/04/09 11:54:43;;;;;;;3.80;3.30;;;6.40;74.20;;;;;;5000328;28;20426;-59
2022/04/09 11:57:12;;;;;;;6.13;3.50;;;6.80;86.20;;;;;;5019254;28;21116;-59
2022/04/09 11:59:38;;;;;;;6.13;3.60;;;7.30;86.00;;;;;;5022586;28;21006;-59
2022/04/09 12:02:15;;;;;;;4.63;3.10;;;7.80;81.90;;;;;;5025441;28;20434;-59
2022/04/09 12:04:41;;;;;;;5.83;3.00;;;8.30;64.30;;;;;;5021890;28;20553;-59
2022/04/09 12:07:07;;;;;;;3.17;2.87;;;8.60;54.70;;;;;;5024215;28;20521;-60
2022/04/09 12:09:34;;;;;;;3.40;2.77;;;8.90;57.60;;;;;;5019750;28;20863;-60
2022/04/09 12:12:02;;;;;;;5.07;3.13;;;9.30;54.70;;;;;;5020049;28;20486;-60
2022/04/09 12:14:28;;;;;;;5.50;3.40;;;9.20;51.70;;;;;;5001640;28;20966;-59
2022/04/09 12:16:55;;;;;;;8.80;3.43;;;9.00;53.10;;;;;;5015919;28;20430;-59
2022/04/09 12:19:32;;;;;;;6.70;3.57;;;8.80;54.20;;;;;;5025881;28;20222;-60
2022/04/09 12:22:12;;;;;;;4.20;3.50;;;8.50;51.90;;;;;;5018331;28;20441;-59
2022/04/09 12:24:58;;;;;;;5.20;3.40;;;8.00;50.70;;;;;;5017048;28;20466;-59
2022/04/09 12:27:44;;;;;;;5.63;3.50;;;7.70;50.60;;;;;;5020577;28;20443;-59
2022/04/09 12:30:11;;;;;;;5.30;3.60;;;7.30;52.20;;;;;;5011342;28;20435;-60
2022/04/09 12:32:39;;;;;;;7.73;3.03;;;7.10;53.40;;;;;;5012720;28;20435;-60
2022/04/09 12:35:07;;;;;;;3.73;3.37;;;6.90;54.00;;;;;;5013673;28;20426;-59
2022/04/09 12:37:47;;;;;;;6.43;2.90;;;6.70;55.00;;;;;;5017655;28;20439;-60
2022/04/09 12:40:18;;;;;;;6.83;2.77;;;6.50;56.00;;;;;;5013427;28;20438;-59
2022/04/09 12:42:46;;;;;;;3.50;2.60;;;6.50;57.00;;;;;;4999704;28;20522;-59
2022/04/09 12:45:15;;;;;;;4.10;2.83;;;6.50;59.80;;;;;;5023912;28;20458;-59
2022/04/09 12:47:42;;;;;;;3.87;2.47;;;6.50;59.60;;;;;;5016844;28;20585;-59
2022/04/09 12:50:19;;;;;;;6.03;2.87;;;6.40;59.60;;;;;;5013876;28;20438;-59
2022/04/09 12:52:44;;;;;;;4.70;2.83;;;6.40;62.00;;;;;;5023269;28;20415;-59
2022/04/09 12:55:13;;;;;;;4.90;3.60;;;6.40;62.00;;;;;;5019672;28;20775;-60
2022/04/09 12:57:39;;;;;;;8.63;3.43;;;6.40;71.00;;;;;;5031907;28;20820;-59
2022/04/09 13:00:05;;;;;;;8.30;4.60;;;6.40;69.10;;;;;;5019598;28;20476;-59